LFAT 210400Z AUTO VRB03KT 9999 BKN046 01/01 Q1037

ElémentsDécodage
LFAT Station météo située sur l'aérodrome de LE-TOUQUET Paris-Plage
210400Z émis le 21 du mois à 04h00 UTC
AUTO Bulletin édité par un automate
VRB03KT vent de direction variable, 03 noeuds
9999 visibilité horizontale supérieure à 10 Km
BKN046 nuages morcelés (5/8 à 7/8) à 4600 pieds
01/01 température 01°C, point de rosée 01°C
 soit une humidité relative de 100%
Q1037 la pression au niveau de la mer (QNH) est de 1037 hPa